Nanjemoy, Maryland
Current Conditions -  °F | °C
As of 10:56 PM on Thursday 27 Nov 2014 (Local Time) from KNYG Reporting Station
Few Clouds Few Clouds  
Wind Chill: 30°   Ceiling: Unl
Heat Index: 34°   Visibility: 10mi
Dew Point: 29°   Wind: 5mph
Humidity: 82%   Direction: 300°WNW
Pressure: 30.21"   Gusts: NA
Location:  38.45°N, 77.22°W
Report Text: KNYG 280356Z AUTO 30004KT 10SM FEW055 01/M02 A3021 RMK AO2 SLP232 T00111017 FZRANO $
Loading
Personal Weather Stations






























Interactive Weather Map New forecast layout! Learn more

10-Day Weather Forecast

Advertisements
Track Severe Weather on mobile